Canyon City, Oregon
Current Conditions -  °F | °C
As of 1:15 PM on Tuesday 21 Oct 2014 (Local Time) from KGCD Reporting Station
Broken Clouds Broken Clouds  
Wind Chill: 11°   Ceiling: 4200
Heat Index: 11°   Visibility: 10mi
Dew Point:   Wind: 9mph
Humidity: 55%   Direction: 190°S
Pressure: 30.05"   Gusts: NA
Location:  44.39°N, 118.95°W
Report Text: KGCD 212015Z AUTO 19008KT 10SM BKN042 12/03 A3005 RMK AO2 T01150027
Loading
Personal Weather Stations






























Interactive Weather Map
Tropical Storm Tracking
New forecast layout! Learn more

10-Day Weather Forecast

Advertisements
Track Severe Weather on mobile